sensor_id;sensor_type;location;lat;lon;timestamp;temperature;humidity
24262;DHT22;12385;51.412;5.540;2024-02-26T00:00:37;7.70;99.90
24262;DHT22;12385;51.412;5.540;2024-02-26T00:03:03;7.60;99.90
24262;DHT22;12385;51.412;5.540;2024-02-26T00:05:28;7.70;99.90
24262;DHT22;12385;51.412;5.540;2024-02-26T00:07:54;7.70;99.90
24262;DHT22;12385;51.412;5.540;2024-02-26T00:10:20;7.60;99.90
24262;DHT22;12385;51.412;5.540;2024-02-26T00:12:45;7.70;99.90
24262;DHT22;12385;51.412;5.540;2024-02-26T00:15:12;7.60;99.90
24262;DHT22;12385;51.412;5.540;2024-02-26T00:17:37;7.60;99.90
24262;DHT22;12385;51.412;5.540;2024-02-26T00:20:03;7.60;99.90
24262;DHT22;12385;51.412;5.540;2024-02-26T00:22:34;7.60;99.90
24262;DHT22;12385;51.412;5.540;2024-02-26T00:25:00;7.60;99.90
24262;DHT22;12385;51.412;5.540;2024-02-26T00:27:26;7.60;99.90
24262;DHT22;12385;51.412;5.540;2024-02-26T00:29:54;7.60;99.90
24262;DHT22;12385;51.412;5.540;2024-02-26T00:32:19;7.60;99.90
24262;DHT22;12385;51.412;5.540;2024-02-26T00:34:45;7.50;99.90
24262;DHT22;12385;51.412;5.540;2024-02-26T00:37:10;7.50;99.90
24262;DHT22;12385;51.412;5.540;2024-02-26T00:39:36;7.50;99.90
24262;DHT22;12385;51.412;5.540;2024-02-26T00:42:02;7.50;99.90
24262;DHT22;12385;51.412;5.540;2024-02-26T00:44:28;7.50;99.90
24262;DHT22;12385;51.412;5.540;2024-02-26T00:46:55;7.50;99.90
24262;DHT22;12385;51.412;5.540;2024-02-26T00:49:25;7.50;99.90
24262;DHT22;12385;51.412;5.540;2024-02-26T00:51:56;7.50;99.90
24262;DHT22;12385;51.412;5.540;2024-02-26T00:54:25;7.50;99.90
24262;DHT22;12385;51.412;5.540;2024-02-26T00:56:55;7.40;99.90
24262;DHT22;12385;51.412;5.540;2024-02-26T00:59:26;7.40;99.90
24262;DHT22;12385;51.412;5.540;2024-02-26T01:01:55;7.40;99.90
24262;DHT22;12385;51.412;5.540;2024-02-26T01:04:24;7.40;99.90
24262;DHT22;12385;51.412;5.540;2024-02-26T01:06:54;7.40;99.90
24262;DHT22;12385;51.412;5.540;2024-02-26T01:09:20;7.40;99.90
24262;DHT22;12385;51.412;5.540;2024-02-26T01:11:48;7.30;99.90
24262;DHT22;12385;51.412;5.540;2024-02-26T01:14:14;7.30;99.90
24262;DHT22;12385;51.412;5.540;2024-02-26T01:16:40;7.40;99.90
24262;DHT22;12385;51.412;5.540;2024-02-26T01:19:05;7.40;99.90
24262;DHT22;12385;51.412;5.540;2024-02-26T01:21:31;7.40;99.90
24262;DHT22;12385;51.412;5.540;2024-02-26T01:23:57;7.30;99.90
24262;DHT22;12385;51.412;5.540;2024-02-26T01:26:25;7.40;99.90
24262;DHT22;12385;51.412;5.540;2024-02-26T01:28:55;7.40;99.90
24262;DHT22;12385;51.412;5.540;2024-02-26T01:31:25;7.40;99.90
24262;DHT22;12385;51.412;5.540;2024-02-26T01:33:55;7.40;99.90
24262;DHT22;12385;51.412;5.540;2024-02-26T01:36:20;7.40;99.90
24262;DHT22;12385;51.412;5.540;2024-02-26T01:38:50;7.30;99.90
24262;DHT22;12385;51.412;5.540;2024-02-26T01:41:16;7.30;99.90
24262;DHT22;12385;51.412;5.540;2024-02-26T01:43:42;7.30;99.90
24262;DHT22;12385;51.412;5.540;2024-02-26T01:46:13;7.30;99.90
24262;DHT22;12385;51.412;5.540;2024-02-26T01:48:43;7.30;99.90
24262;DHT22;12385;51.412;5.540;2024-02-26T01:51:11;7.30;99.90
24262;DHT22;12385;51.412;5.540;2024-02-26T01:53:38;7.30;99.90
24262;DHT22;12385;51.412;5.540;2024-02-26T01:56:04;7.20;99.90
24262;DHT22;12385;51.412;5.540;2024-02-26T01:58:30;7.20;99.90
24262;DHT22;12385;51.412;5.540;2024-02-26T02:00:57;7.20;99.90
24262;DHT22;12385;51.412;5.540;2024-02-26T02:03:25;7.20;99.90
24262;DHT22;12385;51.412;5.540;2024-02-26T02:05:55;7.20;99.90
24262;DHT22;12385;51.412;5.540;2024-02-26T02:08:25;7.20;99.90
24262;DHT22;12385;51.412;5.540;2024-02-26T02:10:55;7.20;99.90
24262;DHT22;12385;51.412;5.540;2024-02-26T02:13:25;7.20;99.90
24262;DHT22;12385;51.412;5.540;2024-02-26T02:15:55;7.10;99.90
24262;DHT22;12385;51.412;5.540;2024-02-26T02:18:25;7.10;99.90
24262;DHT22;12385;51.412;5.540;2024-02-26T02:20:55;7.00;99.90
24262;DHT22;12385;51.412;5.540;2024-02-26T02:23:25;7.00;99.90
24262;DHT22;12385;51.412;5.540;2024-02-26T02:25:56;6.90;99.90
24262;DHT22;12385;51.412;5.540;2024-02-26T02:28:27;6.90;99.90
24262;DHT22;12385;51.412;5.540;2024-02-26T02:30:56;6.80;99.90
24262;DHT22;12385;51.412;5.540;2024-02-26T02:33:26;6.80;99.90
24262;DHT22;12385;51.412;5.540;2024-02-26T02:35:55;6.80;99.90
24262;DHT22;12385;51.412;5.540;2024-02-26T02:38:25;6.80;99.90
24262;DHT22;12385;51.412;5.540;2024-02-26T02:40:55;6.70;99.90
24262;DHT22;12385;51.412;5.540;2024-02-26T02:43:25;6.70;99.90
24262;DHT22;12385;51.412;5.540;2024-02-26T02:45:55;6.70;99.90
24262;DHT22;12385;51.412;5.540;2024-02-26T02:48:25;6.70;99.90
24262;DHT22;12385;51.412;5.540;2024-02-26T02:50:56;6.70;99.90
24262;DHT22;12385;51.412;5.540;2024-02-26T02:53:25;6.60;99.90
24262;DHT22;12385;51.412;5.540;2024-02-26T02:55:54;6.70;99.90
24262;DHT22;12385;51.412;5.540;2024-02-26T02:58:25;6.60;99.90
24262;DHT22;12385;51.412;5.540;2024-02-26T03:00:55;6.60;99.90
24262;DHT22;12385;51.412;5.540;2024-02-26T03:03:25;6.60;99.90
24262;DHT22;12385;51.412;5.540;2024-02-26T03:05:55;6.60;99.90
24262;DHT22;12385;51.412;5.540;2024-02-26T03:08:24;6.60;99.90
24262;DHT22;12385;51.412;5.540;2024-02-26T03:10:55;6.60;99.90
24262;DHT22;12385;51.412;5.540;2024-02-26T03:13:25;6.60;99.90
24262;DHT22;12385;51.412;5.540;2024-02-26T03:15:56;6.60;99.90
24262;DHT22;12385;51.412;5.540;2024-02-26T03:18:26;6.60;99.90
24262;DHT22;12385;51.412;5.540;2024-02-26T03:20:55;6.50;99.90
24262;DHT22;12385;51.412;5.540;2024-02-26T03:23:25;6.50;99.90
24262;DHT22;12385;51.412;5.540;2024-02-26T03:25:55;6.50;99.90
24262;DHT22;12385;51.412;5.540;2024-02-26T03:28:26;6.50;99.90
24262;DHT22;12385;51.412;5.540;2024-02-26T03:30:56;6.50;99.90
24262;DHT22;12385;51.412;5.540;2024-02-26T03:33:27;6.50;99.90
24262;DHT22;12385;51.412;5.540;2024-02-26T03:35:56;6.50;99.90
24262;DHT22;12385;51.412;5.540;2024-02-26T03:38:26;6.50;99.90
24262;DHT22;12385;51.412;5.540;2024-02-26T03:40:55;6.50;99.90
24262;DHT22;12385;51.412;5.540;2024-02-26T03:43:25;6.50;99.90
24262;DHT22;12385;51.412;5.540;2024-02-26T03:45:55;6.50;99.90
24262;DHT22;12385;51.412;5.540;2024-02-26T03:48:26;6.50;99.90
24262;DHT22;12385;51.412;5.540;2024-02-26T03:50:55;6.50;99.90
24262;DHT22;12385;51.412;5.540;2024-02-26T03:53:27;6.50;99.90
24262;DHT22;12385;51.412;5.540;2024-02-26T03:55:55;6.50;99.90
24262;DHT22;12385;51.412;5.540;2024-02-26T03:58:25;6.50;99.90
24262;DHT22;12385;51.412;5.540;2024-02-26T04:00:55;6.40;99.90
24262;DHT22;12385;51.412;5.540;2024-02-26T04:03:26;6.50;99.90
24262;DHT22;12385;51.412;5.540;2024-02-26T04:05:55;6.50;99.90
24262;DHT22;12385;51.412;5.540;2024-02-26T04:08:26;6.40;99.90
24262;DHT22;12385;51.412;5.540;2024-02-26T04:10:55;6.40;99.90
24262;DHT22;12385;51.412;5.540;2024-02-26T04:13:25;6.40;99.90
24262;DHT22;12385;51.412;5.540;2024-02-26T04:15:56;6.40;99.90
24262;DHT22;12385;51.412;5.540;2024-02-26T04:18:26;6.40;99.90
24262;DHT22;12385;51.412;5.540;2024-02-26T04:20:56;6.40;99.90
24262;DHT22;12385;51.412;5.540;2024-02-26T04:23:26;6.30;99.90
24262;DHT22;12385;51.412;5.540;2024-02-26T04:25:56;6.30;99.90
24262;DHT22;12385;51.412;5.540;2024-02-26T04:28:25;6.30;99.90
24262;DHT22;12385;51.412;5.540;2024-02-26T04:30:56;6.30;99.90
24262;DHT22;12385;51.412;5.540;2024-02-26T04:33:26;6.30;99.90
24262;DHT22;12385;51.412;5.540;2024-02-26T04:35:55;6.30;99.90
24262;DHT22;12385;51.412;5.540;2024-02-26T04:38:26;6.20;99.90
24262;DHT22;12385;51.412;5.540;2024-02-26T04:40:56;6.30;99.90
24262;DHT22;12385;51.412;5.540;2024-02-26T04:43:25;6.20;99.90
24262;DHT22;12385;51.412;5.540;2024-02-26T04:45:54;6.30;99.90
24262;DHT22;12385;51.412;5.540;2024-02-26T04:48:27;6.30;99.90
24262;DHT22;12385;51.412;5.540;2024-02-26T04:50:55;6.30;99.90
24262;DHT22;12385;51.412;5.540;2024-02-26T04:53:25;6.20;99.90
24262;DHT22;12385;51.412;5.540;2024-02-26T04:55:55;6.20;99.90
24262;DHT22;12385;51.412;5.540;2024-02-26T04:58:25;6.20;99.90
24262;DHT22;12385;51.412;5.540;2024-02-26T05:00:55;6.20;99.90
24262;DHT22;12385;51.412;5.540;2024-02-26T05:03:25;6.20;99.90
24262;DHT22;12385;51.412;5.540;2024-02-26T05:05:54;6.20;99.90
24262;DHT22;12385;51.412;5.540;2024-02-26T05:08:25;6.20;99.90
24262;DHT22;12385;51.412;5.540;2024-02-26T05:10:55;6.10;99.90
24262;DHT22;12385;51.412;5.540;2024-02-26T05:13:24;6.20;99.90
24262;DHT22;12385;51.412;5.540;2024-02-26T05:15:50;6.10;99.90
24262;DHT22;12385;51.412;5.540;2024-02-26T05:18:20;6.10;99.90
24262;DHT22;12385;51.412;5.540;2024-02-26T05:20:45;6.10;99.90
24262;DHT22;12385;51.412;5.540;2024-02-26T05:23:11;6.10;99.90
24262;DHT22;12385;51.412;5.540;2024-02-26T05:25:37;6.10;99.90
24262;DHT22;12385;51.412;5.540;2024-02-26T05:28:04;6.10;99.90
24262;DHT22;12385;51.412;5.540;2024-02-26T05:30:30;6.10;99.90
24262;DHT22;12385;51.412;5.540;2024-02-26T05:32:56;6.10;99.90
24262;DHT22;12385;51.412;5.540;2024-02-26T05:35:25;6.10;99.90
24262;DHT22;12385;51.412;5.540;2024-02-26T05:37:55;6.10;99.90
24262;DHT22;12385;51.412;5.540;2024-02-26T05:40:23;6.10;99.90
24262;DHT22;12385;51.412;5.540;2024-02-26T05:42:54;6.00;99.90
24262;DHT22;12385;51.412;5.540;2024-02-26T05:45:20;6.00;99.90
24262;DHT22;12385;51.412;5.540;2024-02-26T05:47:49;6.10;99.90
24262;DHT22;12385;51.412;5.540;2024-02-26T05:50:15;6.10;99.90
24262;DHT22;12385;51.412;5.540;2024-02-26T05:52:41;6.10;99.90
24262;DHT22;12385;51.412;5.540;2024-02-26T05:55:08;6.10;99.90
24262;DHT22;12385;51.412;5.540;2024-02-26T05:57:34;6.10;99.90
24262;DHT22;12385;51.412;5.540;2024-02-26T06:00:00;6.00;99.90
24262;DHT22;12385;51.412;5.540;2024-02-26T06:02:32;6.00;99.90
24262;DHT22;12385;51.412;5.540;2024-02-26T06:04:58;6.00;99.90
24262;DHT22;12385;51.412;5.540;2024-02-26T06:07:25;6.00;99.90
24262;DHT22;12385;51.412;5.540;2024-02-26T06:09:56;6.00;99.90
24262;DHT22;12385;51.412;5.540;2024-02-26T06:12:25;6.10;99.90
24262;DHT22;12385;51.412;5.540;2024-02-26T06:14:55;6.10;99.90
24262;DHT22;12385;51.412;5.540;2024-02-26T06:17:25;6.00;99.90
24262;DHT22;12385;51.412;5.540;2024-02-26T06:19:55;6.10;99.90
24262;DHT22;12385;51.412;5.540;2024-02-26T06:22:25;6.10;99.90
24262;DHT22;12385;51.412;5.540;2024-02-26T06:24:57;6.00;99.90
24262;DHT22;12385;51.412;5.540;2024-02-26T06:27:25;6.00;99.90
24262;DHT22;12385;51.412;5.540;2024-02-26T06:29:57;6.00;99.90
24262;DHT22;12385;51.412;5.540;2024-02-26T06:32:25;6.10;99.90
24262;DHT22;12385;51.412;5.540;2024-02-26T06:34:55;6.00;99.90
24262;DHT22;12385;51.412;5.540;2024-02-26T06:37:25;6.00;99.90
24262;DHT22;12385;51.412;5.540;2024-02-26T06:39:53;6.00;99.90
24262;DHT22;12385;51.412;5.540;2024-02-26T06:42:20;6.00;99.90
24262;DHT22;12385;51.412;5.540;2024-02-26T06:44:50;6.00;99.90
24262;DHT22;12385;51.412;5.540;2024-02-26T06:47:16;6.00;99.90
24262;DHT22;12385;51.412;5.540;2024-02-26T06:49:44;6.00;99.90
24262;DHT22;12385;51.412;5.540;2024-02-26T06:52:10;6.00;99.90
24262;DHT22;12385;51.412;5.540;2024-02-26T06:54:36;6.00;99.90
24262;DHT22;12385;51.412;5.540;2024-02-26T06:57:02;6.00;99.90
24262;DHT22;12385;51.412;5.540;2024-02-26T06:59:28;6.00;99.90
24262;DHT22;12385;51.412;5.540;2024-02-26T07:01:55;6.00;99.90
24262;DHT22;12385;51.412;5.540;2024-02-26T07:04:25;6.00;99.90
24262;DHT22;12385;51.412;5.540;2024-02-26T07:06:50;6.00;99.90
24262;DHT22;12385;51.412;5.540;2024-02-26T07:09:20;6.00;99.90
24262;DHT22;12385;51.412;5.540;2024-02-26T07:11:46;5.90;99.90
24262;DHT22;12385;51.412;5.540;2024-02-26T07:14:12;6.00;99.90
24262;DHT22;12385;51.412;5.540;2024-02-26T07:16:38;6.00;99.90
24262;DHT22;12385;51.412;5.540;2024-02-26T07:19:04;6.00;99.90
24262;DHT22;12385;51.412;5.540;2024-02-26T07:21:30;6.00;99.90
24262;DHT22;12385;51.412;5.540;2024-02-26T07:23:56;6.00;99.90
24262;DHT22;12385;51.412;5.540;2024-02-26T07:26:25;6.00;99.90
24262;DHT22;12385;51.412;5.540;2024-02-26T07:28:56;5.90;99.90
24262;DHT22;12385;51.412;5.540;2024-02-26T07:31:25;5.90;99.90
24262;DHT22;12385;51.412;5.540;2024-02-26T07:33:54;6.00;99.90
24262;DHT22;12385;51.412;5.540;2024-02-26T07:36:20;5.90;99.90
24262;DHT22;12385;51.412;5.540;2024-02-26T07:38:46;6.00;99.90
24262;DHT22;12385;51.412;5.540;2024-02-26T07:41:12;6.00;99.90
24262;DHT22;12385;51.412;5.540;2024-02-26T07:43:38;6.00;99.90
24262;DHT22;12385;51.412;5.540;2024-02-26T07:46:04;6.00;99.90
24262;DHT22;12385;51.412;5.540;2024-02-26T07:48:30;5.90;99.90
24262;DHT22;12385;51.412;5.540;2024-02-26T07:50:55;5.90;99.90
24262;DHT22;12385;51.412;5.540;2024-02-26T07:53:25;5.90;99.90
24262;DHT22;12385;51.412;5.540;2024-02-26T07:55:55;5.90;99.90
24262;DHT22;12385;51.412;5.540;2024-02-26T07:58:25;5.90;99.90
24262;DHT22;12385;51.412;5.540;2024-02-26T08:00:55;5.90;99.90
24262;DHT22;12385;51.412;5.540;2024-02-26T08:03:25;5.90;99.90
24262;DHT22;12385;51.412;5.540;2024-02-26T08:05:55;5.90;99.90
24262;DHT22;12385;51.412;5.540;2024-02-26T08:08:25;5.90;99.90
24262;DHT22;12385;51.412;5.540;2024-02-26T08:10:55;5.90;99.90
24262;DHT22;12385;51.412;5.540;2024-02-26T08:13:26;5.90;99.90
24262;DHT22;12385;51.412;5.540;2024-02-26T08:15:56;5.90;99.90
24262;DHT22;12385;51.412;5.540;2024-02-26T08:18:25;5.90;99.90
24262;DHT22;12385;51.412;5.540;2024-02-26T08:20:54;5.90;99.90
24262;DHT22;12385;51.412;5.540;2024-02-26T08:23:25;5.90;99.90
24262;DHT22;12385;51.412;5.540;2024-02-26T08:25:56;5.90;99.90
24262;DHT22;12385;51.412;5.540;2024-02-26T08:28:25;5.90;99.90
24262;DHT22;12385;51.412;5.540;2024-02-26T08:30:54;6.00;99.90
24262;DHT22;12385;51.412;5.540;2024-02-26T08:33:20;5.90;99.90
24262;DHT22;12385;51.412;5.540;2024-02-26T08:35:46;5.90;99.90
24262;DHT22;12385;51.412;5.540;2024-02-26T08:38:13;6.00;99.90
24262;DHT22;12385;51.412;5.540;2024-02-26T08:40:38;6.00;99.90
24262;DHT22;12385;51.412;5.540;2024-02-26T08:43:04;5.90;99.90
24262;DHT22;12385;51.412;5.540;2024-02-26T08:45:29;6.00;99.90
24262;DHT22;12385;51.412;5.540;2024-02-26T08:47:55;6.00;99.90
24262;DHT22;12385;51.412;5.540;2024-02-26T08:50:25;6.00;99.90
24262;DHT22;12385;51.412;5.540;2024-02-26T08:52:55;6.00;99.90
24262;DHT22;12385;51.412;5.540;2024-02-26T08:55:26;6.00;99.90
24262;DHT22;12385;51.412;5.540;2024-02-26T08:57:55;6.00;99.90
24262;DHT22;12385;51.412;5.540;2024-02-26T09:00:25;6.00;99.90
24262;DHT22;12385;51.412;5.540;2024-02-26T09:02:55;6.00;99.90
24262;DHT22;12385;51.412;5.540;2024-02-26T09:05:25;5.90;99.90
24262;DHT22;12385;51.412;5.540;2024-02-26T09:07:55;5.90;99.90
24262;DHT22;12385;51.412;5.540;2024-02-26T09:10:26;6.00;99.90
24262;DHT22;12385;51.412;5.540;2024-02-26T09:12:56;5.90;99.90
24262;DHT22;12385;51.412;5.540;2024-02-26T09:15:25;5.90;99.90
24262;DHT22;12385;51.412;5.540;2024-02-26T09:17:55;5.90;99.90
24262;DHT22;12385;51.412;5.540;2024-02-26T09:20:25;5.90;99.90
24262;DHT22;12385;51.412;5.540;2024-02-26T09:22:55;6.00;99.90
24262;DHT22;12385;51.412;5.540;2024-02-26T09:25:25;5.90;99.90
24262;DHT22;12385;51.412;5.540;2024-02-26T09:27:55;5.90;99.90
24262;DHT22;12385;51.412;5.540;2024-02-26T09:30:26;5.90;99.90
24262;DHT22;12385;51.412;5.540;2024-02-26T09:32:55;5.90;99.90
24262;DHT22;12385;51.412;5.540;2024-02-26T09:35:26;5.90;99.90
24262;DHT22;12385;51.412;5.540;2024-02-26T09:37:55;5.90;99.90
24262;DHT22;12385;51.412;5.540;2024-02-26T09:40:25;5.90;99.90
24262;DHT22;12385;51.412;5.540;2024-02-26T09:43:00;6.00;99.90
24262;DHT22;12385;51.412;5.540;2024-02-26T09:45:28;6.00;99.90
24262;DHT22;12385;51.412;5.540;2024-02-26T09:47:56;6.00;99.90
24262;DHT22;12385;51.412;5.540;2024-02-26T09:50:25;6.00;99.90
24262;DHT22;12385;51.412;5.540;2024-02-26T09:52:55;6.00;99.90
24262;DHT22;12385;51.412;5.540;2024-02-26T09:55:25;6.00;99.90
24262;DHT22;12385;51.412;5.540;2024-02-26T09:57:56;6.00;99.90
24262;DHT22;12385;51.412;5.540;2024-02-26T10:00:26;6.00;99.90
24262;DHT22;12385;51.412;5.540;2024-02-26T10:02:57;6.00;99.90
24262;DHT22;12385;51.412;5.540;2024-02-26T10:05:26;6.00;99.90
24262;DHT22;12385;51.412;5.540;2024-02-26T10:07:56;6.00;99.90
24262;DHT22;12385;51.412;5.540;2024-02-26T10:10:28;6.00;99.90
24262;DHT22;12385;51.412;5.540;2024-02-26T10:12:56;6.00;99.90
24262;DHT22;12385;51.412;5.540;2024-02-26T10:15:25;6.00;99.90
24262;DHT22;12385;51.412;5.540;2024-02-26T10:17:55;6.00;99.90
24262;DHT22;12385;51.412;5.540;2024-02-26T10:20:24;6.00;99.90
24262;DHT22;12385;51.412;5.540;2024-02-26T10:22:55;6.00;99.90
24262;DHT22;12385;51.412;5.540;2024-02-26T10:25:24;6.00;99.90
24262;DHT22;12385;51.412;5.540;2024-02-26T10:27:54;6.00;99.90
24262;DHT22;12385;51.412;5.540;2024-02-26T10:30:25;6.00;99.90
24262;DHT22;12385;51.412;5.540;2024-02-26T10:32:56;6.00;99.90
24262;DHT22;12385;51.412;5.540;2024-02-26T10:35:26;6.10;99.90
24262;DHT22;12385;51.412;5.540;2024-02-26T10:37:55;6.00;99.90
24262;DHT22;12385;51.412;5.540;2024-02-26T10:40:26;6.00;99.90
24262;DHT22;12385;51.412;5.540;2024-02-26T10:42:58;6.10;99.90
24262;DHT22;12385;51.412;5.540;2024-02-26T10:45:26;6.10;99.90
24262;DHT22;12385;51.412;5.540;2024-02-26T10:47:56;6.10;99.90
24262;DHT22;12385;51.412;5.540;2024-02-26T10:50:26;6.10;99.90
24262;DHT22;12385;51.412;5.540;2024-02-26T10:52:57;6.10;99.90
24262;DHT22;12385;51.412;5.540;2024-02-26T10:55:26;6.10;99.90
24262;DHT22;12385;51.412;5.540;2024-02-26T10:57:57;6.10;99.90
24262;DHT22;12385;51.412;5.540;2024-02-26T11:00:26;6.00;99.90
24262;DHT22;12385;51.412;5.540;2024-02-26T11:02:59;6.10;99.90
24262;DHT22;12385;51.412;5.540;2024-02-26T11:05:28;6.10;99.90
24262;DHT22;12385;51.412;5.540;2024-02-26T11:07:58;6.10;99.90
24262;DHT22;12385;51.412;5.540;2024-02-26T11:10:29;6.00;99.90
24262;DHT22;12385;51.412;5.540;2024-02-26T11:13:00;6.00;99.90
24262;DHT22;12385;51.412;5.540;2024-02-26T11:15:29;6.00;99.90
24262;DHT22;12385;51.412;5.540;2024-02-26T11:17:58;6.10;99.90
24262;DHT22;12385;51.412;5.540;2024-02-26T11:20:28;6.10;99.90
24262;DHT22;12385;51.412;5.540;2024-02-26T11:22:58;6.00;99.90
24262;DHT22;12385;51.412;5.540;2024-02-26T11:25:26;6.00;99.90
24262;DHT22;12385;51.412;5.540;2024-02-26T11:28:04;6.00;99.90
24262;DHT22;12385;51.412;5.540;2024-02-26T11:30:34;6.00;99.90
24262;DHT22;12385;51.412;5.540;2024-02-26T11:33:01;6.00;99.90
24262;DHT22;12385;51.412;5.540;2024-02-26T11:35:28;6.10;99.90
24262;DHT22;12385;51.412;5.540;2024-02-26T11:37:58;6.00;99.90
24262;DHT22;12385;51.412;5.540;2024-02-26T11:40:26;6.00;99.90
24262;DHT22;12385;51.412;5.540;2024-02-26T11:42:58;6.00;99.90
24262;DHT22;12385;51.412;5.540;2024-02-26T11:45:47;6.10;99.90
24262;DHT22;12385;51.412;5.540;2024-02-26T11:48:20;6.00;99.90
24262;DHT22;12385;51.412;5.540;2024-02-26T11:50:58;6.10;99.90
24262;DHT22;12385;51.412;5.540;2024-02-26T11:53:28;6.10;99.90
24262;DHT22;12385;51.412;5.540;2024-02-26T11:58:45;6.10;99.90
24262;DHT22;12385;51.412;5.540;2024-02-26T12:01:48;6.10;99.90
24262;DHT22;12385;51.412;5.540;2024-02-26T12:04:21;6.10;99.90
24262;DHT22;12385;51.412;5.540;2024-02-26T12:07:00;6.10;99.90
24262;DHT22;12385;51.412;5.540;2024-02-26T12:09:37;6.10;99.90
24262;DHT22;12385;51.412;5.540;2024-02-26T12:12:05;6.10;99.90
24262;DHT22;12385;51.412;5.540;2024-02-26T12:14:33;6.10;99.90
24262;DHT22;12385;51.412;5.540;2024-02-26T12:17:00;6.10;99.90
24262;DHT22;12385;51.412;5.540;2024-02-26T12:19:28;6.10;99.90
24262;DHT22;12385;51.412;5.540;2024-02-26T12:21:59;6.10;99.90
24262;DHT22;12385;51.412;5.540;2024-02-26T12:24:26;6.10;99.90
24262;DHT22;12385;51.412;5.540;2024-02-26T12:26:57;6.20;99.90
24262;DHT22;12385;51.412;5.540;2024-02-26T12:29:26;6.20;99.90
24262;DHT22;12385;51.412;5.540;2024-02-26T12:31:59;6.20;99.90
24262;DHT22;12385;51.412;5.540;2024-02-26T12:34:25;6.20;99.90
24262;DHT22;12385;51.412;5.540;2024-02-26T12:36:57;6.20;99.90
24262;DHT22;12385;51.412;5.540;2024-02-26T12:39:26;6.20;99.90
24262;DHT22;12385;51.412;5.540;2024-02-26T12:41:59;6.20;99.90
24262;DHT22;12385;51.412;5.540;2024-02-26T12:44:26;6.20;99.90
24262;DHT22;12385;51.412;5.540;2024-02-26T12:47:03;6.20;99.90
24262;DHT22;12385;51.412;5.540;2024-02-26T12:49:29;6.30;99.90
24262;DHT22;12385;51.412;5.540;2024-02-26T12:51:57;6.30;99.90
24262;DHT22;12385;51.412;5.540;2024-02-26T12:54:29;6.30;99.90
24262;DHT22;12385;51.412;5.540;2024-02-26T12:56:57;6.30;99.90
24262;DHT22;12385;51.412;5.540;2024-02-26T12:59:25;6.30;99.90
24262;DHT22;12385;51.412;5.540;2024-02-26T13:01:57;6.30;99.90
24262;DHT22;12385;51.412;5.540;2024-02-26T13:04:28;6.30;99.90
24262;DHT22;12385;51.412;5.540;2024-02-26T13:06:57;6.30;99.90
24262;DHT22;12385;51.412;5.540;2024-02-26T13:09:33;6.30;99.90
24262;DHT22;12385;51.412;5.540;2024-02-26T13:12:03;6.30;99.90
24262;DHT22;12385;51.412;5.540;2024-02-26T13:14:29;6.30;99.90
24262;DHT22;12385;51.412;5.540;2024-02-26T13:16:58;6.30;99.90
24262;DHT22;12385;51.412;5.540;2024-02-26T13:19:27;6.30;99.90
24262;DHT22;12385;51.412;5.540;2024-02-26T13:22:06;6.30;99.90
24262;DHT22;12385;51.412;5.540;2024-02-26T13:24:35;6.30;99.90
24262;DHT22;12385;51.412;5.540;2024-02-26T13:27:03;6.30;99.90
24262;DHT22;12385;51.412;5.540;2024-02-26T13:29:30;6.30;99.90
24262;DHT22;12385;51.412;5.540;2024-02-26T13:31:59;6.30;99.90
24262;DHT22;12385;51.412;5.540;2024-02-26T13:34:29;6.30;99.90
24262;DHT22;12385;51.412;5.540;2024-02-26T13:36:59;6.30;99.90
24262;DHT22;12385;51.412;5.540;2024-02-26T13:39:27;6.30;99.90
24262;DHT22;12385;51.412;5.540;2024-02-26T13:41:57;6.30;99.90
24262;DHT22;12385;51.412;5.540;2024-02-26T13:44:26;6.40;99.90
24262;DHT22;12385;51.412;5.540;2024-02-26T13:46:58;6.40;99.90
24262;DHT22;12385;51.412;5.540;2024-02-26T13:49:28;6.30;99.90
24262;DHT22;12385;51.412;5.540;2024-02-26T13:51:57;6.30;99.90
24262;DHT22;12385;51.412;5.540;2024-02-26T13:54:26;6.30;99.90
24262;DHT22;12385;51.412;5.540;2024-02-26T13:56:56;6.30;99.90
24262;DHT22;12385;51.412;5.540;2024-02-26T13:59:26;6.30;99.90
24262;DHT22;12385;51.412;5.540;2024-02-26T14:01:58;6.30;99.90
24262;DHT22;12385;51.412;5.540;2024-02-26T14:04:27;6.30;99.90
24262;DHT22;12385;51.412;5.540;2024-02-26T14:06:57;6.30;99.90
24262;DHT22;12385;51.412;5.540;2024-02-26T14:09:26;6.20;99.90
24262;DHT22;12385;51.412;5.540;2024-02-26T14:12:00;6.30;99.90
24262;DHT22;12385;51.412;5.540;2024-02-26T14:14:29;6.20;99.90
24262;DHT22;12385;51.412;5.540;2024-02-26T14:16:58;6.20;99.90
24262;DHT22;12385;51.412;5.540;2024-02-26T14:19:26;6.20;99.90
24262;DHT22;12385;51.412;5.540;2024-02-26T14:21:57;6.30;99.90
24262;DHT22;12385;51.412;5.540;2024-02-26T14:24:24;6.30;99.90
24262;DHT22;12385;51.412;5.540;2024-02-26T14:26:50;6.30;99.90
24262;DHT22;12385;51.412;5.540;2024-02-26T14:29:16;6.30;99.90
24262;DHT22;12385;51.412;5.540;2024-02-26T14:31:42;6.30;99.90
24262;DHT22;12385;51.412;5.540;2024-02-26T14:34:08;6.30;99.90
24262;DHT22;12385;51.412;5.540;2024-02-26T14:36:35;6.30;99.90
24262;DHT22;12385;51.412;5.540;2024-02-26T14:39:03;6.30;99.90
24262;DHT22;12385;51.412;5.540;2024-02-26T14:41:29;6.40;99.90
24262;DHT22;12385;51.412;5.540;2024-02-26T14:43:56;6.30;99.90
24262;DHT22;12385;51.412;5.540;2024-02-26T14:46:25;6.30;99.90
24262;DHT22;12385;51.412;5.540;2024-02-26T14:48:55;6.40;99.90
24262;DHT22;12385;51.412;5.540;2024-02-26T14:51:25;6.40;99.90
24262;DHT22;12385;51.412;5.540;2024-02-26T14:53:56;6.40;99.90
24262;DHT22;12385;51.412;5.540;2024-02-26T14:56:25;6.40;99.90
24262;DHT22;12385;51.412;5.540;2024-02-26T14:58:55;6.40;99.90
24262;DHT22;12385;51.412;5.540;2024-02-26T15:01:25;6.30;99.90
24262;DHT22;12385;51.412;5.540;2024-02-26T15:03:51;6.40;99.90
24262;DHT22;12385;51.412;5.540;2024-02-26T15:06:25;6.40;99.90
24262;DHT22;12385;51.412;5.540;2024-02-26T15:08:56;6.40;99.90
24262;DHT22;12385;51.412;5.540;2024-02-26T15:11:26;6.40;99.90
24262;DHT22;12385;51.412;5.540;2024-02-26T15:13:55;6.40;99.90
24262;DHT22;12385;51.412;5.540;2024-02-26T15:16:30;6.40;99.90
24262;DHT22;12385;51.412;5.540;2024-02-26T15:18:56;6.40;99.90
24262;DHT22;12385;51.412;5.540;2024-02-26T15:21:25;6.40;99.90
24262;DHT22;12385;51.412;5.540;2024-02-26T15:23:55;6.50;99.90
24262;DHT22;12385;51.412;5.540;2024-02-26T15:26:21;6.40;99.90
24262;DHT22;12385;51.412;5.540;2024-02-26T15:28:55;6.50;99.90
24262;DHT22;12385;51.412;5.540;2024-02-26T15:31:25;6.50;99.90
24262;DHT22;12385;51.412;5.540;2024-02-26T15:33:57;6.40;99.90
24262;DHT22;12385;51.412;5.540;2024-02-26T15:36:26;6.40;99.90
24262;DHT22;12385;51.412;5.540;2024-02-26T15:38:56;6.50;99.90
24262;DHT22;12385;51.412;5.540;2024-02-26T15:41:25;6.40;99.90
24262;DHT22;12385;51.412;5.540;2024-02-26T15:43:55;6.50;99.90
24262;DHT22;12385;51.412;5.540;2024-02-26T15:46:21;6.50;99.90
24262;DHT22;12385;51.412;5.540;2024-02-26T15:48:55;6.50;99.90
24262;DHT22;12385;51.412;5.540;2024-02-26T15:51:27;6.50;99.90
24262;DHT22;12385;51.412;5.540;2024-02-26T15:53:56;6.50;99.90
24262;DHT22;12385;51.412;5.540;2024-02-26T15:56:26;6.50;99.90
24262;DHT22;12385;51.412;5.540;2024-02-26T15:58:56;6.50;99.90